createdAt,value
2022-11-16T00:00:05.588Z,33.5
2022-11-16T00:01:01.288Z,33.5
2022-11-16T00:02:01.364Z,33.6
2022-11-16T00:03:01.167Z,33.7
2022-11-16T00:04:01.608Z,33.8
2022-11-16T00:05:01.182Z,34
2022-11-16T00:06:01.077Z,34
2022-11-16T00:07:01.092Z,33.9
2022-11-16T00:08:01.089Z,33.9
2022-11-16T00:09:01.084Z,33.9
2022-11-16T00:10:01.315Z,33.9
2022-11-16T00:11:01.341Z,34.4
2022-11-16T00:12:01.518Z,34.4
2022-11-16T00:13:02.037Z,34.4
2022-11-16T00:14:01.063Z,34.3
2022-11-16T00:15:01.124Z,34.8
2022-11-16T00:16:01.131Z,34.8
2022-11-16T00:17:01.144Z,34.9
2022-11-16T00:18:01.413Z,35.2
2022-11-16T00:19:01.086Z,35.3
2022-11-16T00:20:01.067Z,35.4
2022-11-16T00:21:01.242Z,35.2
2022-11-16T00:22:01.255Z,35.4
2022-11-16T00:23:01.881Z,35.4
2022-11-16T00:24:02.122Z,36.2
2022-11-16T00:25:02.676Z,37.3
2022-11-16T00:26:01.147Z,37.6
2022-11-16T00:27:01.282Z,37.7
2022-11-16T00:28:01.136Z,38.2
2022-11-16T00:29:01.382Z,38.7
2022-11-16T00:30:01.068Z,39.8
2022-11-16T00:31:01.539Z,40.4
2022-11-16T00:32:02.078Z,40.7
2022-11-16T00:33:01.175Z,41.9
2022-11-16T00:34:01.053Z,42.1
2022-11-16T00:35:01.144Z,42.2
2022-11-16T00:36:01.052Z,42.9
2022-11-16T00:37:01.290Z,43.4
2022-11-16T00:38:01.449Z,44.9
2022-11-16T00:39:01.604Z,45.8
2022-11-16T00:40:01.189Z,46.8
2022-11-16T00:41:04.041Z,46.9
2022-11-16T00:42:01.931Z,46.8
2022-11-16T00:43:01.134Z,47.3
2022-11-16T00:44:01.121Z,47.5
2022-11-16T00:45:01.550Z,47.7
2022-11-16T00:46:02.681Z,47.7
2022-11-16T00:47:02.015Z,47.1
2022-11-16T00:48:01.338Z,47.6
2022-11-16T00:49:01.213Z,47.7
2022-11-16T00:50:01.912Z,47.9
2022-11-16T00:51:00.944Z,48.4
2022-11-16T00:52:00.544Z,48.7
2022-11-16T00:53:00.498Z,49.2
2022-11-16T00:54:01.181Z,50.2
2022-11-16T00:55:01.324Z,50.6
2022-11-16T00:56:08.791Z,51.3
2022-11-16T00:57:01.920Z,52.5
2022-11-16T00:58:01.095Z,53.4
2022-11-16T00:59:01.253Z,55
2022-11-16T01:00:01.491Z,57.8
2022-11-16T01:01:07.700Z,59.5
2022-11-16T01:02:01.961Z,61.8
2022-11-16T01:03:01.486Z,63.8
2022-11-16T01:04:01.400Z,66.1
2022-11-16T01:05:01.313Z,68.8
2022-11-16T01:06:14.981Z,73.1
2022-11-16T01:07:01.160Z,76.4
2022-11-16T01:08:01.160Z,80.1
2022-11-16T01:09:03.907Z,83.8
2022-11-16T01:10:01.284Z,85.7
2022-11-16T01:11:01.116Z,88.9
2022-11-16T01:12:01.124Z,90.3
2022-11-16T01:13:01.081Z,90.2
2022-11-16T01:14:01.248Z,90.9
2022-11-16T01:15:01.158Z,93.9
2022-11-16T01:16:01.120Z,96.3
2022-11-16T01:17:01.356Z,98.3
2022-11-16T01:18:01.419Z,99.9
2022-11-16T01:19:02.856Z,99.9
2022-11-16T01:20:02.034Z,99.9
2022-11-16T01:21:01.531Z,99.9
2022-11-16T01:22:01.322Z,99.9
2022-11-16T01:23:00.969Z,99.9
2022-11-16T01:24:01.072Z,99.9
2022-11-16T01:25:01.608Z,99.9
2022-11-16T01:26:01.766Z,99.9
2022-11-16T01:27:01.190Z,99.9
2022-11-16T01:28:01.641Z,99.9
2022-11-16T01:29:01.168Z,99.9
2022-11-16T01:30:02.178Z,99.9
2022-11-16T01:31:01.101Z,99.9
2022-11-16T01:32:01.115Z,99.9
2022-11-16T01:33:01.133Z,99.9
2022-11-16T01:34:01.361Z,99.9
2022-11-16T01:35:01.373Z,99.9
2022-11-16T01:36:01.547Z,99.9
2022-11-16T01:37:01.421Z,99.9
2022-11-16T01:38:01.154Z,99.9
2022-11-16T01:39:01.164Z,99.9
2022-11-16T01:40:01.212Z,99.9
2022-11-16T01:41:01.962Z,99.9
2022-11-16T01:42:01.185Z,99.9
2022-11-16T01:43:01.068Z,99.9
2022-11-16T01:44:01.266Z,99.9
2022-11-16T01:45:01.118Z,99.9
2022-11-16T01:46:00.365Z,99.9
2022-11-16T01:46:59.958Z,99.9
2022-11-16T01:47:59.949Z,99.9
2022-11-16T01:48:59.911Z,99.9
2022-11-16T01:49:59.557Z,99.9
2022-11-16T01:51:01.531Z,99.9
2022-11-16T01:52:01.127Z,99.9
2022-11-16T01:53:01.174Z,99.9
2022-11-16T01:54:01.153Z,99.9
2022-11-16T01:55:01.162Z,99.9
2022-11-16T01:56:01.177Z,99.9
2022-11-16T01:57:01.309Z,99.9
2022-11-16T01:58:01.593Z,99.9
2022-11-16T01:59:01.695Z,99.9
2022-11-16T02:00:02.176Z,99.9
2022-11-16T02:01:02.424Z,99.9
2022-11-16T02:02:01.961Z,99.9
2022-11-16T02:03:01.768Z,99.9
2022-11-16T02:04:01.143Z,99.9
2022-11-16T02:05:01.123Z,99.9
2022-11-16T02:06:01.120Z,99.9
2022-11-16T02:07:01.201Z,99.9
2022-11-16T02:08:01.392Z,99.9
2022-11-16T02:09:01.591Z,99.9
2022-11-16T02:10:01.153Z,99.9
2022-11-16T02:11:01.395Z,99.9
2022-11-16T02:12:01.113Z,99.9
2022-11-16T02:13:01.295Z,99.9
2022-11-16T02:13:59.943Z,99.9
2022-11-16T02:14:59.567Z,99.9
2022-11-16T02:16:01.856Z,99.9
2022-11-16T02:17:01.089Z,99.9
2022-11-16T02:18:08.190Z,99.9
2022-11-16T02:19:04.163Z,99.9
2022-11-16T02:20:01.254Z,99.9
2022-11-16T02:21:02.057Z,99.9
2022-11-16T02:22:00.991Z,99.9
2022-11-16T02:23:01.713Z,99.9
2022-11-16T02:24:01.168Z,99.9
2022-11-16T02:25:02.075Z,99.9
2022-11-16T02:26:01.393Z,99.9
2022-11-16T02:27:03.337Z,99.9
2022-11-16T02:28:02.605Z,99.9
2022-11-16T02:29:01.956Z,99.9
2022-11-16T02:30:01.060Z,99.9
2022-11-16T02:31:01.239Z,99.9
2022-11-16T02:32:06.911Z,99.9
2022-11-16T02:33:01.329Z,99.9
2022-11-16T02:34:02.195Z,99.9
2022-11-16T02:35:02.430Z,99.9
2022-11-16T02:36:01.898Z,99.9
2022-11-16T02:37:10.309Z,99.9
2022-11-16T02:38:01.203Z,99.9
2022-11-16T02:39:02.079Z,99.9
2022-11-16T02:40:01.829Z,99.9
2022-11-16T02:41:03.268Z,99.9
2022-11-16T02:42:13.955Z,99.9
2022-11-16T02:43:02.045Z,99.9
2022-11-16T02:44:01.069Z,99.9
2022-11-16T02:45:01.606Z,99.9
2022-11-16T02:46:01.175Z,99.9
2022-11-16T02:47:16.460Z,99.9
2022-11-16T02:48:01.630Z,99.9
2022-11-16T02:49:01.673Z,99.9
2022-11-16T02:50:01.044Z,99.9
2022-11-16T02:51:01.099Z,99.9
2022-11-16T02:52:01.058Z,99.9
2022-11-16T02:53:01.107Z,99.9
2022-11-16T02:54:01.719Z,99.9
2022-11-16T02:55:01.393Z,99.9
2022-11-16T02:56:01.329Z,99.9
2022-11-16T02:57:01.646Z,99.9
2022-11-16T02:58:01.125Z,99.9
2022-11-16T02:59:01.074Z,99.9
2022-11-16T03:00:01.045Z,99.9
2022-11-16T03:01:01.629Z,99.9
2022-11-16T03:02:01.440Z,99.9
2022-11-16T03:03:01.977Z,99.9
2022-11-16T03:04:01.075Z,99.9
2022-11-16T03:05:00.586Z,99.9
2022-11-16T03:06:00.258Z,99.9
2022-11-16T03:07:00.346Z,99.9
2022-11-16T03:08:00.162Z,99.9
2022-11-16T03:08:59.821Z,99.9
2022-11-16T03:10:01.456Z,99.9
2022-11-16T03:11:01.118Z,99.9
2022-11-16T03:12:01.137Z,99.9
2022-11-16T03:13:01.124Z,99.9
2022-11-16T03:14:01.011Z,99.9
2022-11-16T03:15:01.995Z,99.9
2022-11-16T03:16:01.142Z,99.9
2022-11-16T03:17:01.163Z,99.9
2022-11-16T03:18:01.053Z,99.9
2022-11-16T03:19:01.076Z,99.9
2022-11-16T03:20:03.724Z,99.9
2022-11-16T03:21:01.050Z,99.9
2022-11-16T03:22:01.477Z,99.9
2022-11-16T03:23:01.175Z,99.9
2022-11-16T03:24:01.340Z,99.9
2022-11-16T03:25:01.527Z,99.9
2022-11-16T03:26:01.100Z,99.9
2022-11-16T03:27:01.113Z,99.9
2022-11-16T03:28:01.121Z,99.9
2022-11-16T03:29:01.348Z,99.9
2022-11-16T03:30:01.403Z,99.9
2022-11-16T03:31:01.618Z,99.9
2022-11-16T03:32:01.525Z,99.9
2022-11-16T03:33:01.165Z,99.9
2022-11-16T03:34:01.178Z,99.9
2022-11-16T03:35:01.064Z,99.9
2022-11-16T03:36:01.070Z,99.9
2022-11-16T03:37:01.062Z,99.9
2022-11-16T03:38:01.446Z,99.9
2022-11-16T03:39:01.103Z,99.9
2022-11-16T03:40:01.090Z,99.9
2022-11-16T03:41:01.093Z,99.9
2022-11-16T03:42:01.107Z,99.9
2022-11-16T03:43:01.389Z,99.9
2022-11-16T03:44:01.557Z,99.9
2022-11-16T03:45:02.037Z,99.9
2022-11-16T03:46:01.421Z,99.9
2022-11-16T03:47:01.493Z,99.9
2022-11-16T03:48:01.386Z,99.9
2022-11-16T03:49:01.298Z,99.9
2022-11-16T03:50:01.740Z,99.9
2022-11-16T03:51:02.771Z,99.9
2022-11-16T03:52:01.603Z,99.9
2022-11-16T03:53:03.646Z,99.9
2022-11-16T03:54:00.903Z,99.9
2022-11-16T03:55:00.870Z,99.9
2022-11-16T03:56:01.597Z,99.9
2022-11-16T03:57:02.186Z,99.9
2022-11-16T03:58:07.755Z,99.9
2022-11-16T03:59:01.159Z,99.9
2022-11-16T04:00:01.357Z,99.9
2022-11-16T04:01:01.898Z,99.9
2022-11-16T04:02:01.142Z,99.9
2022-11-16T04:03:10.453Z,99.9
2022-11-16T04:04:01.149Z,99.9
2022-11-16T04:05:01.535Z,99.9
2022-11-16T04:06:01.047Z,99.9
2022-11-16T04:07:01.073Z,99.9
2022-11-16T04:08:13.610Z,99.9
2022-11-16T04:09:01.254Z,99.9
2022-11-16T04:10:01.715Z,99.9
2022-11-16T04:11:02.446Z,99.9
2022-11-16T04:12:01.094Z,99.9
2022-11-16T04:13:16.258Z,99.9
2022-11-16T04:14:06.540Z,99.9
2022-11-16T04:15:01.988Z,99.9
2022-11-16T04:16:01.115Z,99.9
2022-11-16T04:17:01.878Z,99.9
2022-11-16T04:18:01.646Z,99.9
2022-11-16T04:19:03.710Z,99.9
2022-11-16T04:20:01.209Z,99.9
2022-11-16T04:21:01.344Z,99.9
2022-11-16T04:22:01.468Z,99.9
2022-11-16T04:23:01.472Z,99.9
2022-11-16T04:24:02.311Z,99.9
2022-11-16T04:25:01.124Z,99.9
2022-11-16T04:26:01.100Z,99.9
2022-11-16T04:27:01.443Z,99.9
2022-11-16T04:28:01.291Z,99.9
2022-11-16T04:29:01.345Z,99.9
2022-11-16T04:30:01.380Z,99.9
2022-11-16T04:31:02.155Z,99.9
2022-11-16T04:32:01.111Z,99.9
2022-11-16T04:33:01.119Z,99.9
2022-11-16T04:34:02.302Z,99.9
2022-11-16T04:35:01.236Z,99.9
2022-11-16T04:36:01.129Z,99.9
2022-11-16T04:37:01.158Z,99.9
2022-11-16T04:38:01.236Z,99.9
2022-11-16T04:39:01.626Z,99.9
2022-11-16T04:40:02.195Z,99.9
2022-11-16T04:41:01.750Z,99.9
2022-11-16T04:42:01.323Z,99.9
2022-11-16T04:43:01.338Z,99.9
2022-11-16T04:44:01.306Z,99.9
2022-11-16T04:45:01.974Z,99.9
2022-11-16T04:46:01.047Z,99.9
2022-11-16T04:47:01.054Z,99.9
2022-11-16T04:48:01.847Z,99.9
2022-11-16T04:49:01.154Z,99.9
2022-11-16T04:50:01.415Z,99.9
2022-11-16T04:51:01.598Z,99.9
2022-11-16T04:52:01.141Z,99.9
2022-11-16T04:53:01.131Z,99.9
2022-11-16T04:54:01.147Z,99.9
2022-11-16T04:55:01.065Z,99.9
2022-11-16T04:56:01.275Z,99.9
2022-11-16T04:57:01.081Z,99.9
2022-11-16T04:58:01.071Z,99.9
2022-11-16T04:59:01.200Z,99.9
2022-11-16T05:00:01.067Z,99.9
2022-11-16T05:01:01.448Z,99.9
2022-11-16T05:02:01.298Z,99.9
2022-11-16T05:03:01.939Z,99.9
2022-11-16T05:04:01.862Z,99.9
2022-11-16T05:05:01.228Z,99.9
2022-11-16T05:06:01.325Z,99.9
2022-11-16T05:07:01.590Z,99.9
2022-11-16T05:08:01.522Z,99.9
2022-11-16T05:09:01.208Z,99.9
2022-11-16T05:10:00.851Z,99.9
2022-11-16T05:11:00.557Z,99.9
2022-11-16T05:12:00.249Z,99.9
2022-11-16T05:12:59.860Z,99.9
2022-11-16T05:14:01.979Z,99.9
2022-11-16T05:15:02.108Z,99.9
2022-11-16T05:16:01.217Z,99.9
2022-11-16T05:17:01.112Z,99.9
2022-11-16T05:18:01.431Z,99.9
2022-11-16T05:19:01.105Z,99.9
2022-11-16T05:20:01.073Z,99.9
2022-11-16T05:21:01.283Z,99.9
2022-11-16T05:22:01.869Z,99.9
2022-11-16T05:23:02.417Z,99.9
2022-11-16T05:24:01.491Z,99.9
2022-11-16T05:25:02.249Z,99.9
2022-11-16T05:26:03.224Z,99.9
2022-11-16T05:27:01.945Z,99.9
2022-11-16T05:28:01.977Z,99.9
2022-11-16T05:29:01.865Z,99.9
2022-11-16T05:30:01.248Z,99.9
2022-11-16T05:31:01.952Z,99.9
2022-11-16T05:32:01.995Z,99.9
2022-11-16T05:33:01.252Z,99.9
2022-11-16T05:34:01.658Z,99.9
2022-11-16T05:35:01.262Z,99.9
2022-11-16T05:36:01.131Z,99.9
2022-11-16T05:37:01.248Z,99.9
2022-11-16T05:38:02.382Z,99.9
2022-11-16T05:39:05.103Z,99.9
2022-11-16T05:40:01.386Z,99.9
2022-11-16T05:41:01.190Z,99.9
2022-11-16T05:42:01.174Z,99.9
2022-11-16T05:43:01.205Z,99.9
2022-11-16T05:44:09.495Z,99.9
2022-11-16T05:45:02.413Z,99.9
2022-11-16T05:46:01.058Z,99.9
2022-11-16T05:47:01.059Z,99.9
2022-11-16T05:48:01.154Z,99.9
2022-11-16T05:49:11.217Z,99.9
2022-11-16T05:50:02.076Z,99.9
2022-11-16T05:51:00.898Z,99.9
2022-11-16T05:52:01.048Z,99.9
2022-11-16T05:53:01.069Z,99.9
2022-11-16T05:54:14.463Z,99.9
2022-11-16T05:55:01.074Z,99.9
2022-11-16T05:56:01.767Z,99.9
2022-11-16T05:57:01.786Z,99.9
2022-11-16T05:58:02.332Z,99.9
2022-11-16T05:59:17.016Z,99.9
2022-11-16T06:00:01.361Z,99.9
2022-11-16T06:01:01.187Z,99.9
2022-11-16T06:02:01.621Z,99.9
2022-11-16T06:03:01.378Z,99.9
2022-11-16T06:04:01.051Z,99.9
2022-11-16T06:05:01.323Z,99.9
2022-11-16T06:06:01.945Z,99.9
2022-11-16T06:07:01.754Z,99.9
2022-11-16T06:08:01.113Z,99.9
2022-11-16T06:09:00.771Z,99.9
2022-11-16T06:10:00.411Z,99.9
2022-11-16T06:11:00.115Z,99.9
2022-11-16T06:11:59.805Z,99.9
2022-11-16T06:13:01.989Z,99.9
2022-11-16T06:14:02.309Z,99.9
2022-11-16T06:15:00.687Z,99.9
2022-11-16T06:16:00.354Z,99.9
2022-11-16T06:16:59.935Z,99.9
2022-11-16T06:17:59.518Z,99.9
2022-11-16T06:19:01.090Z,99.9
2022-11-16T06:20:01.438Z,99.9
2022-11-16T06:21:01.778Z,99.9
2022-11-16T06:22:01.940Z,99.9
2022-11-16T06:23:02.230Z,99.9
2022-11-16T06:24:01.109Z,99.9
2022-11-16T06:25:01.044Z,99.9
2022-11-16T06:26:01.054Z,99.9
2022-11-16T06:27:01.461Z,99.9
2022-11-16T06:28:06.652Z,99.9
2022-11-16T06:29:03.309Z,99.9
2022-11-16T06:30:00.954Z,99.9
2022-11-16T06:31:01.577Z,99.9
2022-11-16T06:32:01.154Z,99.9
2022-11-16T06:33:01.061Z,99.9
2022-11-16T06:34:01.130Z,99.9
2022-11-16T06:35:01.118Z,99.9
2022-11-16T06:36:01.471Z,99.9
2022-11-16T06:37:01.085Z,99.9
2022-11-16T06:38:01.091Z,99.9
2022-11-16T06:39:01.316Z,99.9
2022-11-16T06:40:01.127Z,99.9
2022-11-16T06:41:01.932Z,99.9
2022-11-16T06:42:01.174Z,99.9
2022-11-16T06:43:00.537Z,99.9
2022-11-16T06:44:00.194Z,99.9
2022-11-16T06:44:59.992Z,99.9
2022-11-16T06:45:59.596Z,99.9
2022-11-16T06:47:01.159Z,99.9
2022-11-16T06:48:01.138Z,99.9
2022-11-16T06:49:01.058Z,99.9
2022-11-16T06:50:01.186Z,99.9
2022-11-16T06:51:01.348Z,99.9
2022-11-16T06:52:01.470Z,99.9
2022-11-16T06:53:02.410Z,99.9
2022-11-16T06:54:01.145Z,99.9
2022-11-16T06:55:02.122Z,99.9
2022-11-16T06:56:02.304Z,99.9
2022-11-16T06:57:01.544Z,99.9
2022-11-16T06:58:01.769Z,99.9
2022-11-16T06:59:01.280Z,99.9
2022-11-16T07:00:01.161Z,99.9
2022-11-16T07:01:01.954Z,99.9
2022-11-16T07:02:01.283Z,99.9
2022-11-16T07:03:01.959Z,99.9
2022-11-16T07:04:01.964Z,99.9
2022-11-16T07:05:03.677Z,99.9
2022-11-16T07:06:01.495Z,99.9
2022-11-16T07:07:01.621Z,99.9
2022-11-16T07:08:01.365Z,99.9
2022-11-16T07:09:01.258Z,99.9
2022-11-16T07:10:01.030Z,99.9
2022-11-16T07:11:04.150Z,99.9
2022-11-16T07:12:01.203Z,99.9
2022-11-16T07:13:02.026Z,99.9
2022-11-16T07:14:01.172Z,99.9
2022-11-16T07:15:03.028Z,99.9
2022-11-16T07:16:01.527Z,99.9
2022-11-16T07:17:06.531Z,99.9
2022-11-16T07:18:01.149Z,99.9
2022-11-16T07:19:01.865Z,99.9
2022-11-16T07:20:05.735Z,99.9
2022-11-16T07:21:01.479Z,99.9
2022-11-16T07:22:01.447Z,99.9
2022-11-16T07:23:01.050Z,99.9
2022-11-16T07:24:01.053Z,99.9
2022-11-16T07:25:08.806Z,99.9
2022-11-16T07:26:01.440Z,99.9
2022-11-16T07:27:01.246Z,99.9
2022-11-16T07:28:01.926Z,99.9
2022-11-16T07:29:01.870Z,99.9
2022-11-16T07:30:11.453Z,99.9
2022-11-16T07:31:01.700Z,99.9
2022-11-16T07:32:00.789Z,99.9
2022-11-16T07:33:00.404Z,99.9
2022-11-16T07:34:00.004Z,99.9
2022-11-16T07:35:14.595Z,99.9
2022-11-16T07:36:00.678Z,99.9
2022-11-16T07:37:00.351Z,99.9
2022-11-16T07:37:59.924Z,99.9
2022-11-16T07:38:59.527Z,99.9
2022-11-16T07:40:01.249Z,99.9
2022-11-16T07:41:01.906Z,99.9
2022-11-16T07:42:01.248Z,99.9
2022-11-16T07:43:01.099Z,99.9
2022-11-16T07:44:00.803Z,99.9
2022-11-16T07:45:00.498Z,99.9
2022-11-16T07:46:21.327Z,99.9
2022-11-16T07:47:01.502Z,99.9
2022-11-16T07:48:01.128Z,99.9
2022-11-16T07:49:01.172Z,99.9
2022-11-16T07:50:01.133Z,99.9
2022-11-16T07:51:00.858Z,99.9
2022-11-16T07:52:00.597Z,99.9
2022-11-16T07:53:00.339Z,99.9
2022-11-16T07:53:59.928Z,99.9
2022-11-16T07:54:59.538Z,99.9
2022-11-16T07:56:01.284Z,99.9
2022-11-16T07:57:01.131Z,99.9
2022-11-16T07:58:01.120Z,99.9
2022-11-16T07:59:01.146Z,99.9
2022-11-16T08:00:01.157Z,99.9
2022-11-16T08:01:01.711Z,99.9
2022-11-16T08:02:01.200Z,99.9
2022-11-16T08:03:01.784Z,99.9
2022-11-16T08:04:01.249Z,99.9
2022-11-16T08:05:01.168Z,99.9
2022-11-16T08:06:01.632Z,99.9
2022-11-16T08:07:01.314Z,99.9
2022-11-16T08:08:02.072Z,99.9
2022-11-16T08:09:04.112Z,99.9
2022-11-16T08:10:01.212Z,99.9
2022-11-16T08:11:00.875Z,99.9
2022-11-16T08:12:01.088Z,99.9
2022-11-16T08:13:01.090Z,99.9
2022-11-16T08:14:01.143Z,99.9
2022-11-16T08:15:01.115Z,99.9
2022-11-16T08:16:01.124Z,99.9
2022-11-16T08:17:01.125Z,99.9
2022-11-16T08:18:01.128Z,99.9
2022-11-16T08:19:01.285Z,99.9
2022-11-16T08:20:01.834Z,99.9
2022-11-16T08:21:02.051Z,99.9
2022-11-16T08:22:02.684Z,99.9
2022-11-16T08:23:01.146Z,99.9
2022-11-16T08:24:01.191Z,99.9
2022-11-16T08:25:01.065Z,99.9
2022-11-16T08:26:01.069Z,99.9
2022-11-16T08:27:01.197Z,99.9
2022-11-16T08:28:01.461Z,99.9
2022-11-16T08:29:02.084Z,99.9
2022-11-16T08:30:01.094Z,99.9
2022-11-16T08:31:01.881Z,99.9
2022-11-16T08:32:01.085Z,99.9
2022-11-16T08:33:01.048Z,99.9
2022-11-16T08:34:01.118Z,99.9
2022-11-16T08:35:01.114Z,99.9
2022-11-16T08:36:01.151Z,99.9
2022-11-16T08:37:01.141Z,99.9
2022-11-16T08:38:01.537Z,99.9
2022-11-16T08:39:01.152Z,99.9
2022-11-16T08:40:01.053Z,99.9
2022-11-16T08:41:01.058Z,99.9
2022-11-16T08:42:01.700Z,99.9
2022-11-16T08:43:01.769Z,99.9
2022-11-16T08:44:01.762Z,99.9
2022-11-16T08:45:01.765Z,99.9
2022-11-16T08:46:01.568Z,99.9
2022-11-16T08:47:01.064Z,99.9
2022-11-16T08:48:04.062Z,99.9
2022-11-16T08:49:01.298Z,99.9
2022-11-16T08:50:01.108Z,99.9
2022-11-16T08:51:16.961Z,99.9
2022-11-16T08:52:01.047Z,99.9
2022-11-16T08:53:01.196Z,99.9
2022-11-16T08:54:01.168Z,99.9
2022-11-16T08:55:01.176Z,99.9
2022-11-16T08:56:01.865Z,99.9
2022-11-16T08:57:01.061Z,99.9
2022-11-16T08:58:01.088Z,99.9
2022-11-16T08:59:01.109Z,99.9
2022-11-16T09:00:01.089Z,99.9
2022-11-16T09:01:00.890Z,99.9
2022-11-16T09:02:02.872Z,99.9
2022-11-16T09:03:02.068Z,99.9
2022-11-16T09:04:02.650Z,99.9
2022-11-16T09:05:01.528Z,99.9
2022-11-16T09:06:02.074Z,99.9
2022-11-16T09:07:01.215Z,99.9
2022-11-16T09:08:01.146Z,99.9
2022-11-16T09:09:01.855Z,99.9
2022-11-16T09:10:02.961Z,99.9
2022-11-16T09:11:04.403Z,99.9
2022-11-16T09:12:00.659Z,99.9
2022-11-16T09:13:00.378Z,99.9
2022-11-16T09:13:59.951Z,99.9
2022-11-16T09:14:59.542Z,99.9
2022-11-16T09:16:07.836Z,99.9
2022-11-16T09:17:02.121Z,99.9
2022-11-16T09:18:01.432Z,99.9
2022-11-16T09:19:01.795Z,99.9
2022-11-16T09:20:01.127Z,99.9
2022-11-16T09:21:10.395Z,99.9
2022-11-16T09:22:02.250Z,99.9
2022-11-16T09:23:01.495Z,99.9
2022-11-16T09:24:02.197Z,99.9
2022-11-16T09:25:01.112Z,99.9
2022-11-16T09:26:13.582Z,99.9
2022-11-16T09:27:01.146Z,99.9
2022-11-16T09:28:01.164Z,99.9
2022-11-16T09:29:01.442Z,99.9
2022-11-16T09:30:01.172Z,99.9
2022-11-16T09:31:00.980Z,99.9
2022-11-16T09:32:00.676Z,99.9
2022-11-16T09:33:00.268Z,99.9
2022-11-16T09:33:59.988Z,99.9
2022-11-16T09:34:59.649Z,99.9
2022-11-16T09:36:01.489Z,99.9
2022-11-16T09:37:01.489Z,99.9
2022-11-16T09:38:01.243Z,99.9
2022-11-16T09:40:01.863Z,99.9
2022-11-16T09:41:01.254Z,99.9
2022-11-16T09:42:01.887Z,99.9
2022-11-16T09:43:01.891Z,99.9
2022-11-16T09:44:00.548Z,99.9
2022-11-16T09:45:00.256Z,99.9
2022-11-16T09:45:59.834Z,99.9
2022-11-16T09:47:02.587Z,99.9
2022-11-16T09:48:03.050Z,99.9
2022-11-16T09:49:01.862Z,99.9
2022-11-16T09:50:03.505Z,99.9
2022-11-16T09:51:00.595Z,99.9
2022-11-16T09:52:00.268Z,99.9
2022-11-16T09:52:59.851Z,99.9
2022-11-16T09:54:01.987Z,99.9
2022-11-16T09:55:01.430Z,99.9
2022-11-16T09:56:01.177Z,99.9
2022-11-16T09:57:00.809Z,99.9
2022-11-16T09:58:01.044Z,99.9
2022-11-16T09:59:00.716Z,99.9
2022-11-16T10:00:00.287Z,99.9
2022-11-16T10:01:00.052Z,99.9
2022-11-16T10:01:59.827Z,99.9
2022-11-16T10:03:01.730Z,99.9
2022-11-16T10:04:01.385Z,99.9
2022-11-16T10:05:01.589Z,99.9
2022-11-16T10:06:02.628Z,99.9
2022-11-16T10:07:01.482Z,99.9
2022-11-16T10:08:02.976Z,99.9
2022-11-16T10:09:01.114Z,99.9
2022-11-16T10:10:01.100Z,99.9
2022-11-16T10:11:00.879Z,99.9
2022-11-16T10:12:01.163Z,99.9
2022-11-16T10:13:01.129Z,99.9
2022-11-16T10:14:04.179Z,99.9
2022-11-16T10:15:01.434Z,99.9
2022-11-16T10:16:01.851Z,99.9
2022-11-16T10:17:00.834Z,99.9
2022-11-16T10:18:00.749Z,99.9
2022-11-16T10:19:00.458Z,99.9
2022-11-16T10:20:00.171Z,99.9
2022-11-16T10:20:59.845Z,99.9
2022-11-16T10:22:01.590Z,99.9
2022-11-16T10:23:01.760Z,99.9
2022-11-16T10:24:01.156Z,99.9
2022-11-16T10:25:01.778Z,99.9
2022-11-16T10:26:00.606Z,99.9
2022-11-16T10:27:00.193Z,99.9
2022-11-16T10:27:59.784Z,99.9
2022-11-16T10:29:02.266Z,99.9
2022-11-16T10:30:04.192Z,99.9
2022-11-16T10:31:02.070Z,99.9
2022-11-16T10:32:01.132Z,99.9
2022-11-16T10:33:01.055Z,99.9
2022-11-16T10:34:01.356Z,99.9
2022-11-16T10:35:01.450Z,99.9
2022-11-16T10:36:01.522Z,99.9
2022-11-16T10:37:01.083Z,99.9
2022-11-16T10:38:01.093Z,99.9
2022-11-16T10:39:03.838Z,99.9
2022-11-16T10:40:01.060Z,99.9
2022-11-16T10:41:00.730Z,99.9
2022-11-16T10:42:06.119Z,99.9
2022-11-16T10:43:01.451Z,99.9
2022-11-16T10:44:01.447Z,99.9
2022-11-16T10:45:02.508Z,99.9
2022-11-16T10:46:02.045Z,99.9
2022-11-16T10:47:01.149Z,99.9
2022-11-16T10:48:01.062Z,99.9
2022-11-16T10:49:01.067Z,99.9
2022-11-16T10:50:01.208Z,99.9
2022-11-16T10:51:01.189Z,99.9
2022-11-16T10:52:01.142Z,99.9
2022-11-16T10:53:01.471Z,99.9
2022-11-16T10:54:01.192Z,99.9
2022-11-16T10:55:03.966Z,99.9
2022-11-16T10:56:01.406Z,99.9
2022-11-16T10:57:03.831Z,99.9
2022-11-16T10:58:01.113Z,99.9
2022-11-16T10:59:01.115Z,99.9
2022-11-16T11:00:01.298Z,99.9
2022-11-16T11:01:01.278Z,99.9
2022-11-16T11:02:05.989Z,99.9
2022-11-16T11:03:01.972Z,99.9
2022-11-16T11:04:01.158Z,99.9
2022-11-16T11:05:01.138Z,99.9
2022-11-16T11:06:00.237Z,99.9
2022-11-16T11:07:08.671Z,99.9
2022-11-16T11:08:02.175Z,99.9
2022-11-16T11:09:01.901Z,99.9
2022-11-16T11:10:01.054Z,99.9
2022-11-16T11:11:00.455Z,99.9
2022-11-16T11:12:09.654Z,99.9
2022-11-16T11:13:01.289Z,99.9
2022-11-16T11:14:01.350Z,99.9
2022-11-16T11:15:01.312Z,99.9
2022-11-16T11:16:00.713Z,99.9
2022-11-16T11:17:11.156Z,99.9
2022-11-16T11:18:01.623Z,99.9
2022-11-16T11:19:01.890Z,99.9
2022-11-16T11:20:01.678Z,99.9
2022-11-16T11:21:00.547Z,99.9
2022-11-16T11:22:13.357Z,99.9
2022-11-16T11:23:01.171Z,99.9
2022-11-16T11:24:29.740Z,99.9
2022-11-16T11:25:16.618Z,99.9
2022-11-16T11:26:00.922Z,99.9
2022-11-16T11:27:16.834Z,99.9
2022-11-16T11:28:01.054Z,99.9
2022-11-16T11:29:01.059Z,99.9
2022-11-16T11:30:01.079Z,99.9
2022-11-16T11:31:01.073Z,99.9
2022-11-16T11:32:01.215Z,99.9
2022-11-16T11:33:01.126Z,99.9
2022-11-16T11:34:01.117Z,99.9
2022-11-16T11:35:01.129Z,99.9
2022-11-16T11:36:01.438Z,99.9
2022-11-16T11:37:01.526Z,99.9
2022-11-16T11:38:07.653Z,99.9
2022-11-16T11:39:01.214Z,99.9
2022-11-16T11:40:01.988Z,99.9
2022-11-16T11:41:01.300Z,99.9
2022-11-16T11:42:00.774Z,99.9
2022-11-16T11:43:00.372Z,99.9
2022-11-16T11:43:59.920Z,99.9
2022-11-16T11:44:59.485Z,99.9
2022-11-16T11:46:01.613Z,99.9
2022-11-16T11:48:01.786Z,99.9
2022-11-16T11:49:01.438Z,99.9
2022-11-16T11:50:01.125Z,99.9
2022-11-16T11:51:01.353Z,99.9
2022-11-16T11:52:02.113Z,99.9
2022-11-16T11:53:01.963Z,99.9
2022-11-16T11:54:04.519Z,99.9
2022-11-16T11:55:01.062Z,99.9
2022-11-16T11:56:01.054Z,99.9
2022-11-16T11:57:01.046Z,99.9
2022-11-16T11:58:01.078Z,99.9
2022-11-16T11:59:01.078Z,99.9
2022-11-16T12:00:01.048Z,99.9
2022-11-16T12:01:00.841Z,99.9
2022-11-16T12:02:00.605Z,99.9
2022-11-16T12:03:00.298Z,99.9
2022-11-16T12:04:00.052Z,99.9
2022-11-16T12:04:59.678Z,99.9
2022-11-16T12:06:02.350Z,99.9
2022-11-16T12:07:01.624Z,99.9
2022-11-16T12:08:02.677Z,99.9
2022-11-16T12:09:01.218Z,99.9
2022-11-16T12:10:01.152Z,99.9
2022-11-16T12:11:00.832Z,99.9
2022-11-16T12:12:00.438Z,99.9
2022-11-16T12:13:00.133Z,99.9
2022-11-16T12:13:59.725Z,99.9
2022-11-16T12:15:02.091Z,99.9
2022-11-16T12:16:02.355Z,99.9
2022-11-16T12:17:01.100Z,99.9
2022-11-16T12:18:01.129Z,99.9
2022-11-16T12:19:00.777Z,99.9
2022-11-16T12:20:00.607Z,99.9
2022-11-16T12:21:00.309Z,99.9
2022-11-16T12:21:59.953Z,99.9
2022-11-16T12:23:03.893Z,99.9
2022-11-16T12:24:01.543Z,99.9
2022-11-16T12:25:01.146Z,99.9
2022-11-16T12:26:00.838Z,99.9
2022-11-16T12:27:00.458Z,99.9
2022-11-16T12:28:00.035Z,99.9
2022-11-16T12:28:59.631Z,99.9
2022-11-16T12:30:01.261Z,99.9
2022-11-16T12:31:00.975Z,99.9
2022-11-16T12:32:01.053Z,99.9
2022-11-16T12:33:01.195Z,99.9
2022-11-16T12:34:04.477Z,99.9
2022-11-16T12:35:01.903Z,99.9
2022-11-16T12:36:02.098Z,99.9
2022-11-16T12:37:01.137Z,99.9
2022-11-16T12:38:01.790Z,99.9
2022-11-16T12:39:01.089Z,99.9
2022-11-16T12:40:01.268Z,99.9
2022-11-16T12:41:01.668Z,99.9
2022-11-16T12:42:01.372Z,99.9
2022-11-16T12:43:02.955Z,99.9
2022-11-16T12:44:02.023Z,99.9
2022-11-16T12:45:01.045Z,99.9
2022-11-16T12:46:00.601Z,99.9
2022-11-16T12:47:00.168Z,99.9
2022-11-16T12:48:03.291Z,99.9
2022-11-16T12:49:01.105Z,99.9
2022-11-16T12:50:01.102Z,99.9
2022-11-16T12:51:00.939Z,99.9
2022-11-16T12:52:01.447Z,99.9
2022-11-16T12:53:07.964Z,99.9
2022-11-16T12:54:02.506Z,99.9
2022-11-16T12:56:01.112Z,99.9
2022-11-16T12:57:01.075Z,99.9
2022-11-16T12:58:10.658Z,99.9
2022-11-16T12:59:01.161Z,99.9
2022-11-16T13:00:01.192Z,99.9
2022-11-16T13:01:00.928Z,99.9
2022-11-16T13:02:01.081Z,99.9
2022-11-16T13:03:13.432Z,99.9
2022-11-16T13:04:00.735Z,99.9
2022-11-16T13:05:00.364Z,99.9
2022-11-16T13:05:59.946Z,99.9
2022-11-16T13:06:59.973Z,99.9
2022-11-16T13:08:15.149Z,99.9
2022-11-16T13:09:01.443Z,99.9
2022-11-16T13:10:01.053Z,99.9
2022-11-16T13:11:00.701Z,99.9
2022-11-16T13:12:00.257Z,99.9
2022-11-16T13:13:29.575Z,99.9
2022-11-16T13:14:01.542Z,99.9
2022-11-16T13:15:01.328Z,99.9
2022-11-16T13:16:01.621Z,99.9
2022-11-16T13:17:01.562Z,99.9
2022-11-16T13:18:02.100Z,99.9
2022-11-16T13:19:01.809Z,99.9
2022-11-16T13:20:01.081Z,99.9
2022-11-16T13:21:01.703Z,99.9